Time;durP1;ratioP1;P1;durP2;ratioP2;P2;SDS_P1;SDS_P2;PMS_P1;PMS_P2;Temp;Humidity;BMP_temperature;BMP_pressure;BME280_temperature;BME280_humidity;BME280_pressure;Samples;Min_cycle;Max_cycle;Signal;HPM_P1;HPM_P2
2023/05/01 00:00:13;;;;;;;5.28;4.78;;;;;;;12.85;48.61;93798.94;4991386;28;20066;-81
2023/05/01 00:02:38;;;;;;;5.35;4.65;;;;;;;12.99;48.65;93806.66;4994971;28;20100;-80
2023/05/01 00:05:05;;;;;;;5.28;4.38;;;;;;;13.01;48.73;93813.22;4995334;28;20042;-82
2023/05/01 00:07:30;;;;;;;6.80;4.53;;;;;;;12.97;48.95;93825.66;4987299;28;20037;-81
2023/05/01 00:09:59;;;;;;;7.43;4.85;;;;;;;12.86;48.96;93817.28;4988106;28;20038;-79
2023/05/01 00:12:24;;;;;;;5.65;5.13;;;;;;;12.94;49.21;93828.22;4984465;28;20026;-81
2023/05/01 00:14:50;;;;;;;5.47;4.65;;;;;;;12.93;49.18;93821.31;4986219;28;20046;-80
2023/05/01 00:17:15;;;;;;;4.93;4.53;;;;;;;12.80;49.23;93807.94;4983262;28;20069;-81
2023/05/01 00:19:41;;;;;;;5.40;4.20;;;;;;;12.94;49.03;93828.22;4986925;28;20058;-81
2023/05/01 00:22:06;;;;;;;4.88;4.45;;;;;;;12.93;49.01;93827.44;4982774;28;20376;-80
2023/05/01 00:24:31;;;;;;;4.53;4.13;;;;;;;12.96;49.34;93826.03;4987607;28;20070;-81
2023/05/01 00:26:57;;;;;;;5.63;5.00;;;;;;;12.86;49.14;93827.94;4987996;28;20226;-81
2023/05/01 00:29:23;;;;;;;5.80;5.15;;;;;;;12.96;48.80;93828.69;4988299;28;20027;-80
2023/05/01 00:31:48;;;;;;;4.85;4.35;;;;;;;12.87;48.77;93802.81;4985759;28;20026;-81
2023/05/01 00:34:14;;;;;;;5.75;4.32;;;;;;;12.85;49.19;93810.41;4986155;28;20335;-81
2023/05/01 00:36:39;;;;;;;7.32;4.82;;;;;;;12.86;49.27;93817.28;4994141;28;20042;-80
2023/05/01 00:39:06;;;;;;;5.88;4.68;;;;;;;12.82;49.70;93823.59;4984500;28;20460;-80
2023/05/01 00:41:33;;;;;;;6.18;5.25;;;;;;;12.79;49.82;93830.38;4986597;28;20034;-79
2023/05/01 00:43:58;;;;;;;5.60;5.10;;;;;;;12.71;49.75;93803.78;4984251;28;20241;-79
2023/05/01 00:46:24;;;;;;;5.07;4.60;;;;;;;12.59;50.06;93801.03;4987439;28;20030;-81
2023/05/01 00:48:51;;;;;;;5.95;5.20;;;;;;;12.69;49.97;93822.75;4987202;28;20041;-80
2023/05/01 00:51:17;;;;;;;6.15;5.20;;;;;;;12.74;50.04;93835.91;4985467;28;20041;-81
2023/05/01 00:53:43;;;;;;;4.88;4.47;;;;;;;12.69;50.08;93828.09;4987653;28;20042;-80
2023/05/01 00:56:10;;;;;;;5.95;4.85;;;;;;;12.79;49.96;93833.03;4987709;28;20042;-79
2023/05/01 00:58:36;;;;;;;5.50;4.70;;;;;;;12.81;50.00;93836.16;4986511;28;20432;-81
2023/05/01 01:01:03;;;;;;;5.07;4.57;;;;;;;12.82;49.94;93848.41;4985204;28;20034;-82
2023/05/01 01:03:31;;;;;;;5.68;5.18;;;;;;;12.52;50.41;93838.84;4991559;28;20575;-78
2023/05/01 01:06:08;;;;;;;5.25;4.70;;;;;;;12.62;50.17;93843.84;4996918;28;20108;-81
2023/05/01 01:08:44;;;;;;;4.90;4.50;;;;;;;12.70;49.94;93848.34;4993286;28;20030;-82
2023/05/01 01:11:13;;;;;;;5.90;5.00;;;;;;;12.67;49.87;93856.97;4990003;28;20038;-81
2023/05/01 01:13:39;;;;;;;5.50;5.00;;;;;;;12.60;49.86;93855.94;4985653;28;20042;-81
2023/05/01 01:16:31;;;;;;;6.60;5.05;;;;;;;12.54;49.90;93859.88;4986481;28;20590;-79
2023/05/01 01:19:28;;;;;;;5.10;4.60;;;;;;;12.52;49.87;93859.44;5002454;28;20054;-80
2023/05/01 01:22:02;;;;;;;5.05;4.55;;;;;;;12.40;50.06;93836.13;4983970;28;20038;-80
2023/05/01 01:24:46;;;;;;;8.43;5.15;;;;;;;12.60;50.22;93861.28;4984637;28;20533;-79
2023/05/01 01:27:29;;;;;;;5.95;5.35;;;;;;;12.28;51.37;93860.00;4987459;28;20038;-81
2023/05/01 01:30:05;;;;;;;5.97;5.45;;;;;;;12.39;51.34;93863.88;4982826;28;20901;-81
2023/05/01 01:32:31;;;;;;;4.38;3.97;;;;;;;12.38;51.12;93852.44;5002434;28;20030;-81
2023/05/01 01:35:11;;;;;;;6.57;4.97;;;;;;;12.11;51.53;93823.56;4982437;28;20057;-81
2023/05/01 01:37:47;;;;;;;7.18;6.47;;;;;;;12.27;51.99;93861.91;4986304;28;20136;-81
2023/05/01 01:40:16;;;;;;;6.85;6.22;;;;;;;12.18;51.93;93858.50;4987067;28;20497;-81
2023/05/01 01:42:50;;;;;;;6.47;5.82;;;;;;;12.26;52.17;93867.56;4983993;28;20061;-77
2023/05/01 01:45:20;;;;;;;7.30;5.83;;;;;;;12.32;52.03;93855.63;4986581;28;20477;-80
2023/05/01 01:47:48;;;;;;;5.22;4.80;;;;;;;12.35;51.94;93868.31;4978041;28;20339;-81
2023/05/01 01:50:17;;;;;;;7.90;5.80;;;;;;;12.36;51.60;93845.88;4985535;28;20094;-81
2023/05/01 01:52:46;;;;;;;6.93;5.78;;;;;;;12.41;51.47;93859.81;4984389;28;20025;-80
2023/05/01 01:55:13;;;;;;;8.30;5.32;;;;;;;12.39;51.79;93866.56;4985716;28;20269;-81
2023/05/01 01:57:42;;;;;;;6.03;5.45;;;;;;;12.41;51.44;93864.34;4983864;28;20042;-80
2023/05/01 02:00:10;;;;;;;7.03;5.70;;;;;;;12.36;51.58;93853.88;4983766;28;20061;-80
2023/05/01 02:02:38;;;;;;;6.15;5.63;;;;;;;12.46;51.04;93861.50;4982575;28;20054;-80
2023/05/01 02:05:06;;;;;;;6.15;5.00;;;;;;;12.47;50.65;93855.03;4982797;28;20041;-80
2023/05/01 02:07:33;;;;;;;5.47;4.97;;;;;;;12.46;50.81;93840.16;4991191;28;20052;-80
2023/05/01 02:10:01;;;;;;;7.10;5.60;;;;;;;12.40;51.25;93852.13;4993814;28;20778;-80
2023/05/01 02:12:27;;;;;;;6.07;5.45;;;;;;;12.24;51.21;93857.22;4990145;28;20605;-81
2023/05/01 02:14:53;;;;;;;6.20;5.60;;;;;;;12.10;51.65;93837.22;4984862;28;20042;-79
2023/05/01 02:17:20;;;;;;;6.03;5.43;;;;;;;12.03;51.42;93830.50;4985198;28;20050;-81
2023/05/01 02:19:46;;;;;;;7.40;6.10;;;;;;;11.93;51.89;93822.88;4985732;28;20039;-81
2023/05/01 02:22:13;;;;;;;9.27;6.45;;;;;;;11.96;52.41;93827.56;4984801;28;20014;-80
2023/05/01 02:24:42;;;;;;;6.38;5.55;;;;;;;12.14;52.29;93843.47;4984496;28;20245;-80
2023/05/01 02:27:35;;;;;;;7.90;5.78;;;;;;;12.29;52.00;93845.59;4984869;28;20084;-81
2023/05/01 02:30:00;;;;;;;6.85;5.25;;;;;;;12.17;52.10;93821.50;4983417;28;20532;-80
2023/05/01 02:32:27;;;;;;;10.88;5.63;;;;;;;12.29;51.40;93829.59;4983110;28;20073;-82
2023/05/01 02:34:53;;;;;;;6.60;6.00;;;;;;;12.18;52.00;93828.38;4981202;28;20026;-82
2023/05/01 02:37:19;;;;;;;6.32;5.72;;;;;;;12.10;52.08;93834.56;4982216;28;20439;-81
2023/05/01 02:39:45;;;;;;;6.85;6.10;;;;;;;11.97;52.78;93853.13;4981318;28;20038;-81
2023/05/01 02:42:12;;;;;;;6.85;6.00;;;;;;;11.67;53.57;93851.50;4981739;28;20045;-78
2023/05/01 02:44:42;;;;;;;6.85;5.90;;;;;;;11.76;52.68;93838.94;4982468;28;20400;-82
2023/05/01 02:47:11;;;;;;;8.80;6.88;;;;;;;11.96;51.93;93848.88;4981282;28;20039;-80
2023/05/01 02:49:37;;;;;;;7.82;6.25;;;;;;;11.89;51.92;93842.47;4981614;28;20213;-80
2023/05/01 02:52:03;;;;;;;7.65;6.88;;;;;;;11.93;51.85;93862.84;4982150;28;20040;-81
2023/05/01 02:54:29;;;;;;;8.35;7.13;;;;;;;11.94;51.88;93861.75;4983290;28;20044;-80
2023/05/01 02:56:58;;;;;;;7.68;6.40;;;;;;;11.80;52.22;93863.06;4997039;28;20035;-80
2023/05/01 02:59:23;;;;;;;7.40;6.20;;;;;;;11.72;52.27;93853.22;4979284;28;20060;-79
2023/05/01 03:01:49;;;;;;;6.88;6.18;;;;;;;11.74;52.46;93862.44;4982423;28;20141;-81
2023/05/01 03:04:14;;;;;;;6.88;6.18;;;;;;;11.70;52.65;93866.06;4982191;28;20058;-81
2023/05/01 03:06:39;;;;;;;6.95;6.25;;;;;;;11.71;52.54;93868.41;4981581;28;20061;-81
2023/05/01 03:09:05;;;;;;;7.38;6.68;;;;;;;11.64;52.51;93862.78;4982954;28;20408;-80
2023/05/01 03:11:30;;;;;;;7.57;6.78;;;;;;;11.62;52.47;93861.56;4988857;28;20107;-81
2023/05/01 03:13:55;;;;;;;7.32;6.50;;;;;;;11.58;53.17;93856.09;4991553;28;20050;-81
2023/05/01 03:16:22;;;;;;;9.50;7.60;;;;;;;11.49;52.74;93828.66;4990699;28;20061;-82
2023/05/01 03:18:47;;;;;;;6.93;6.30;;;;;;;11.52;53.40;93846.69;4986167;28;20054;-82
2023/05/01 03:21:13;;;;;;;8.55;6.30;;;;;;;11.41;53.21;93843.56;4984229;28;20030;-81
2023/05/01 03:23:38;;;;;;;7.15;5.72;;;;;;;11.50;53.42;93857.63;4986279;28;20050;-80
2023/05/01 03:26:04;;;;;;;6.35;5.75;;;;;;;11.44;53.14;93863.44;4983443;28;20038;-78
2023/05/01 03:28:30;;;;;;;6.95;5.90;;;;;;;11.31;53.04;93853.75;4987412;28;20675;-81
2023/05/01 03:30:55;;;;;;;7.93;6.30;;;;;;;11.29;53.13;93856.75;4985542;28;20567;-81
2023/05/01 03:33:20;;;;;;;9.18;6.22;;;;;;;11.16;53.11;93841.72;4984316;28;20062;-81
2023/05/01 03:35:46;;;;;;;7.35;6.43;;;;;;;11.20;53.22;93847.22;4985670;28;20128;-79
2023/05/01 03:38:12;;;;;;;7.10;6.40;;;;;;;11.42;53.23;93862.97;4986563;28;20117;-81
2023/05/01 03:40:37;;;;;;;6.72;5.97;;;;;;;11.23;53.01;93862.53;4984378;28;20028;-81
2023/05/01 03:43:03;;;;;;;6.60;5.93;;;;;;;11.25;53.01;93882.41;4983985;28;20042;-82
2023/05/01 03:45:28;;;;;;;9.13;7.72;;;;;;;11.30;52.75;93878.78;4987430;28;20110;-82
2023/05/01 03:47:53;;;;;;;11.10;9.60;;;;;;;11.34;53.36;93895.72;4982166;28;20041;-80
2023/05/01 03:50:19;;;;;;;11.23;8.90;;;;;;;11.23;53.66;93889.16;4986353;28;20034;-79
2023/05/01 03:52:44;;;;;;;14.15;10.32;;;;;;;11.18;54.36;93909.53;4983174;28;20037;-79
2023/05/01 03:55:10;;;;;;;10.57;9.57;;;;;;;11.21;54.17;93896.66;4984131;28;20022;-80
2023/05/01 03:57:36;;;;;;;13.15;9.43;;;;;;;11.23;53.92;93899.81;4984213;28;20039;-82
2023/05/01 04:00:02;;;;;;;12.45;9.52;;;;;;;11.13;54.07;93879.63;4985424;28;20038;-82
2023/05/01 04:02:27;;;;;;;14.13;8.93;;;;;;;11.28;54.18;93896.97;4985210;28;20034;-81
2023/05/01 04:04:52;;;;;;;14.57;10.20;;;;;;;11.21;54.95;93902.78;4984215;28;20026;-79
2023/05/01 04:07:18;;;;;;;11.25;9.20;;;;;;;10.92;54.73;93852.84;4984336;28;20969;-81
2023/05/01 04:09:43;;;;;;;11.88;10.43;;;;;;;11.02;56.53;93919.06;4982974;28;20133;-81
2023/05/01 04:12:09;;;;;;;16.83;13.75;;;;;;;10.68;57.53;93884.44;4984640;28;20049;-80
2023/05/01 04:14:34;;;;;;;15.40;11.80;;;;;;;11.12;56.53;93905.44;4985563;28;20180;-78
2023/05/01 04:17:00;;;;;;;14.07;12.48;;;;;;;11.29;55.77;93899.34;4991942;28;20088;-81
2023/05/01 04:19:26;;;;;;;12.75;10.77;;;;;;;11.40;55.40;93894.44;4994942;28;20088;-81
2023/05/01 04:21:51;;;;;;;12.88;11.52;;;;;;;11.45;55.53;93892.41;4989270;28;20031;-82
2023/05/01 04:24:17;;;;;;;11.60;9.88;;;;;;;11.64;55.63;93904.66;4986300;28;20053;-80
2023/05/01 04:26:42;;;;;;;11.02;9.60;;;;;;;11.59;54.95;93882.38;4986917;28;20065;-81
2023/05/01 04:29:08;;;;;;;13.98;11.02;;;;;;;11.68;55.94;93901.03;4985197;28;20045;-82
2023/05/01 04:31:33;;;;;;;12.52;11.20;;;;;;;11.83;55.61;93889.84;4983390;28;20036;-81
2023/05/01 04:33:59;;;;;;;15.07;10.60;;;;;;;11.93;55.80;93907.38;4983143;28;20030;-80
2023/05/01 04:36:25;;;;;;;16.13;13.43;;;;;;;11.92;55.84;93906.59;4983914;28;20128;-81
2023/05/01 04:38:50;;;;;;;20.60;14.48;;;;;;;11.85;55.91;93879.66;4982028;28;20463;-80
2023/05/01 04:41:15;;;;;;;22.75;15.43;;;;;;;11.89;57.21;93912.56;4982707;28;20050;-80
2023/05/01 04:43:41;;;;;;;18.67;15.25;;;;;;;12.00;55.78;93916.44;4983727;28;20019;-79
2023/05/01 04:46:06;;;;;;;19.38;14.88;;;;;;;12.14;55.98;93923.44;4979963;28;20030;-77
2023/05/01 04:48:31;;;;;;;18.98;15.95;;;;;;;11.79;57.02;93923.56;4983594;28;20030;-81
2023/05/01 04:50:57;;;;;;;26.67;15.55;;;;;;;11.56;57.59;93907.00;4983029;28;20038;-78
2023/05/01 04:53:22;;;;;;;20.83;15.20;;;;;;;11.57;58.29;93915.78;4979530;28;20837;-80
2023/05/01 04:55:48;;;;;;;16.92;15.13;;;;;;;11.54;58.23;93927.06;4981923;28;20022;-79
2023/05/01 04:58:13;;;;;;;17.92;14.82;;;;;;;11.65;57.86;93927.50;4984000;28;20026;-82
2023/05/01 05:00:38;;;;;;;18.45;14.25;;;;;;;11.91;57.24;93926.34;4980652;28;20136;-79
2023/05/01 05:03:04;;;;;;;16.05;14.40;;;;;;;12.38;55.63;93929.00;4979771;28;20061;-80
2023/05/01 05:05:29;;;;;;;16.23;14.35;;;;;;;12.44;55.17;93912.50;4981709;28;20109;-80
2023/05/01 05:07:55;;;;;;;18.13;15.63;;;;;;;12.15;55.74;93903.69;4979851;28;20044;-82
2023/05/01 05:10:20;;;;;;;18.63;14.95;;;;;;;12.58;55.23;93932.81;4983182;28;20378;-82
2023/05/01 05:12:45;;;;;;;16.35;14.43;;;;;;;12.70;54.87;93919.59;4980994;28;20396;-81
2023/05/01 05:15:11;;;;;;;18.98;14.80;;;;;;;12.41;55.65;93920.38;4981759;28;20532;-80
2023/05/01 05:17:36;;;;;;;17.40;15.50;;;;;;;12.48;56.11;93931.28;4985120;28;20046;-79
2023/05/01 05:20:03;;;;;;;17.23;15.43;;;;;;;12.01;56.73;93944.66;4992259;28;20046;-80
2023/05/01 05:22:28;;;;;;;18.15;15.43;;;;;;;11.63;58.81;93959.81;4988609;28;20519;-81
2023/05/01 05:24:54;;;;;;;16.27;13.95;;;;;;;11.76;58.33;93934.84;4985348;28;20375;-81
2023/05/01 05:27:20;;;;;;;18.08;13.63;;;;;;;11.95;57.46;93953.16;4983883;28;20041;-80
2023/05/01 05:29:45;;;;;;;16.85;13.88;;;;;;;12.02;56.72;93964.91;4981900;28;20038;-81
2023/05/01 05:32:10;;;;;;;19.33;14.00;;;;;;;12.42;56.00;93952.03;4984899;28;20529;-80
2023/05/01 05:34:37;;;;;;;17.33;13.35;;;;;;;12.84;54.86;93968.97;4978788;28;20032;-81
2023/05/01 05:37:05;;;;;;;15.45;12.80;;;;;;;12.58;55.38;93968.31;4983436;28;20083;-81
2023/05/01 05:39:31;;;;;;;17.10;12.25;;;;;;;12.30;55.44;93948.50;4981385;28;20026;-80
2023/05/01 05:41:57;;;;;;;13.23;11.82;;;;;;;12.96;53.44;93970.94;4980303;28;20039;-81
2023/05/01 05:44:23;;;;;;;14.70;13.10;;;;;;;13.07;52.36;93950.75;4980124;28;20053;-80
2023/05/01 05:46:48;;;;;;;12.52;11.32;;;;;;;13.26;52.21;93942.28;4981586;28;20034;-80
2023/05/01 05:49:13;;;;;;;14.27;11.27;;;;;;;13.47;51.63;93959.09;4984548;28;20030;-81
2023/05/01 05:51:39;;;;;;;13.35;11.32;;;;;;;13.50;51.76;93958.44;4981672;28;20046;-81
2023/05/01 05:54:04;;;;;;;14.15;11.23;;;;;;;13.38;52.63;93969.09;4980458;28;20035;-81
2023/05/01 05:56:30;;;;;;;14.45;11.82;;;;;;;13.59;52.22;93969.09;4978571;28;20042;-81
2023/05/01 05:58:55;;;;;;;12.32;11.07;;;;;;;13.57;51.98;93950.69;4968673;28;20062;-81
2023/05/01 06:01:21;;;;;;;19.38;11.48;;;;;;;13.68;51.74;93956.44;4981923;28;20014;-81
2023/05/01 06:03:46;;;;;;;13.07;11.75;;;;;;;13.65;52.12;93965.09;4980540;28;20875;-81
2023/05/01 06:06:12;;;;;;;13.15;11.75;;;;;;;13.80;50.81;93961.03;4981951;28;20041;-82
2023/05/01 06:08:37;;;;;;;15.43;11.40;;;;;;;13.54;52.54;93977.28;4981970;28;20129;-80
2023/05/01 06:11:02;;;;;;;16.45;11.52;;;;;;;13.64;52.21;93969.66;4970571;28;20222;-81
2023/05/01 06:13:28;;;;;;;15.50;11.43;;;;;;;13.71;52.64;93967.25;4975989;28;20046;-78
2023/05/01 06:15:53;;;;;;;13.00;11.43;;;;;;;14.09;50.94;93960.91;4976622;28;20374;-80
2023/05/01 06:18:19;;;;;;;13.55;11.35;;;;;;;14.38;50.50;93974.09;4979340;28;20045;-80
2023/05/01 06:20:46;;;;;;;14.43;10.93;;;;;;;14.60;49.81;93973.72;4976012;28;20052;-82
2023/05/01 06:23:12;;;;;;;13.80;10.75;;;;;;;14.55;50.17;93965.13;4984186;28;20042;-81
2023/05/01 06:25:38;;;;;;;15.80;10.18;;;;;;;14.29;51.21;93962.72;4975757;28;20065;-80
2023/05/01 06:28:03;;;;;;;14.43;10.45;;;;;;;14.47;50.30;93966.75;4971922;28;20034;-78
2023/05/01 06:30:29;;;;;;;14.32;10.73;;;;;;;14.46;50.26;93980.47;4977324;28;20697;-78
2023/05/01 06:32:54;;;;;;;12.55;9.43;;;;;;;14.65;50.14;93970.03;4973897;28;20061;-80
2023/05/01 06:35:20;;;;;;;10.48;9.48;;;;;;;14.94;48.97;93977.84;4976599;28;20038;-80
2023/05/01 06:37:45;;;;;;;11.60;10.40;;;;;;;15.07;48.51;93975.94;4975254;28;20041;-80
2023/05/01 06:40:11;;;;;;;13.07;9.95;;;;;;;15.32;48.39;93979.34;4976108;28;20849;-80
2023/05/01 06:42:38;;;;;;;12.18;9.82;;;;;;;15.14;47.99;93970.78;4971452;28;20720;-79
2023/05/01 06:45:05;;;;;;;12.30;9.48;;;;;;;14.52;49.29;93966.53;4975133;28;20133;-80
2023/05/01 06:47:30;;;;;;;12.02;10.18;;;;;;;14.90;48.87;93981.53;4976933;28;20037;-82
2023/05/01 06:49:56;;;;;;;11.98;9.02;;;;;;;15.19;47.89;93970.56;4979766;28;20038;-80
2023/05/01 06:52:21;;;;;;;7.95;7.18;;;;;;;15.16;48.25;93987.28;4981300;28;20052;-80
2023/05/01 06:54:46;;;;;;;12.35;8.43;;;;;;;15.29;47.13;93966.63;4983634;28;20030;-80
2023/05/01 06:57:12;;;;;;;10.38;8.60;;;;;;;15.37;46.93;93974.53;4979763;28;20045;-81
2023/05/01 06:59:37;;;;;;;15.32;8.77;;;;;;;15.24;47.92;93986.41;4985243;28;20043;-81
2023/05/01 07:02:02;;;;;;;8.88;8.07;;;;;;;15.56;46.86;93976.63;4982797;28;20576;-78
2023/05/01 07:04:28;;;;;;;9.18;7.93;;;;;;;15.78;46.57;93983.38;4986826;28;20027;-78
2023/05/01 07:06:53;;;;;;;10.52;7.07;;;;;;;15.98;45.75;93993.16;4981959;28;20047;-77
2023/05/01 07:09:20;;;;;;;7.85;7.10;;;;;;;16.14;45.34;93991.25;4984013;28;20042;-80
2023/05/01 07:11:45;;;;;;;8.90;7.18;;;;;;;16.35;46.58;93993.75;4983910;28;20100;-82
2023/05/01 07:14:11;;;;;;;10.48;7.63;;;;;;;16.42;44.74;93974.38;4978747;28;20061;-78
2023/05/01 07:16:36;;;;;;;9.52;8.30;;;;;;;15.84;46.10;93971.31;4986424;28;20038;-80
2023/05/01 07:19:01;;;;;;;11.60;8.88;;;;;;;15.90;45.16;93970.69;4978105;28;20042;-81
2023/05/01 07:21:27;;;;;;;9.38;8.07;;;;;;;16.08;45.65;94002.59;4983811;28;20485;-79
2023/05/01 07:23:52;;;;;;;11.32;7.90;;;;;;;15.84;45.99;93998.13;4993167;28;20053;-79
2023/05/01 07:26:18;;;;;;;17.60;8.18;;;;;;;15.68;45.66;93981.97;4990086;28;20457;-83
2023/05/01 07:28:44;;;;;;;7.88;7.07;;;;;;;15.98;45.69;93987.00;4983245;28;20102;-78
2023/05/01 07:31:09;;;;;;;8.85;6.13;;;;;;;16.11;44.60;93985.81;4983535;28;20015;-80
2023/05/01 07:33:35;;;;;;;15.27;8.35;;;;;;;15.74;46.89;93998.59;4979467;28;20041;-80
2023/05/01 07:36:00;;;;;;;13.10;8.52;;;;;;;15.33;46.55;93995.09;4981242;28;20038;-78
2023/05/01 07:38:26;;;;;;;10.43;7.65;;;;;;;15.85;45.33;94000.44;4985971;28;20102;-80
2023/05/01 07:40:52;;;;;;;6.93;6.15;;;;;;;15.97;44.60;93996.16;4983066;28;20133;-78
2023/05/01 07:43:18;;;;;;;8.63;7.22;;;;;;;16.06;44.81;93994.09;4983965;28;20033;-82
2023/05/01 07:45:57;;;;;;;8.00;5.90;;;;;;;15.42;45.01;93990.38;4981132;28;20031;-79
2023/05/01 07:48:22;;;;;;;6.40;5.80;;;;;;;15.34;45.09;93953.78;4977909;28;20038;-78
2023/05/01 07:50:48;;;;;;;6.85;6.22;;;;;;;14.91;45.89;93993.81;4973251;28;20057;-79
2023/05/01 07:53:13;;;;;;;7.88;5.90;;;;;;;15.03;45.23;93996.47;4975683;28;20496;-79
2023/05/01 07:55:39;;;;;;;7.45;6.20;;;;;;;15.40;44.78;93978.47;4986596;28;20064;-79
2023/05/01 07:58:05;;;;;;;7.47;6.78;;;;;;;15.17;44.75;93939.84;4977778;28;20045;-76
2023/05/01 08:00:30;;;;;;;9.98;7.63;;;;;;;15.96;45.64;94000.75;4986108;28;20046;-81
2023/05/01 08:02:56;;;;;;;9.45;8.15;;;;;;;15.83;45.32;93999.25;4974395;28;20125;-78
2023/05/01 08:05:21;;;;;;;11.70;8.25;;;;;;;15.55;45.66;93990.41;4986523;28;20038;-79
2023/05/01 08:07:46;;;;;;;11.23;7.75;;;;;;;15.63;45.62;93992.94;4977648;28;20065;-79
2023/05/01 08:10:12;;;;;;;10.82;7.90;;;;;;;15.41;46.25;93996.84;4981934;28;20083;-80
2023/05/01 08:12:38;;;;;;;10.60;9.35;;;;;;;15.22;47.58;93983.28;4985528;28;20045;-81
2023/05/01 08:15:04;;;;;;;7.80;6.95;;;;;;;15.57;48.69;93985.47;4982431;28;20705;-78
2023/05/01 08:17:30;;;;;;;8.70;7.43;;;;;;;15.84;45.57;93998.13;4984474;28;20049;-79
2023/05/01 08:19:56;;;;;;;13.02;8.65;;;;;;;15.80;45.64;93987.28;4982208;28;20061;-80
2023/05/01 08:22:22;;;;;;;13.90;7.78;;;;;;;15.79;44.45;93985.72;4982749;28;20054;-79
2023/05/01 08:24:49;;;;;;;8.05;6.90;;;;;;;15.70;45.58;93992.34;4987236;28;20107;-78
2023/05/01 08:27:15;;;;;;;11.63;7.60;;;;;;;15.72;46.53;93985.53;4988077;28;20023;-79
2023/05/01 08:29:40;;;;;;;10.35;8.10;;;;;;;15.30;45.73;93957.50;4982657;28;20039;-78
2023/05/01 08:32:06;;;;;;;12.25;8.07;;;;;;;15.48;44.83;93968.75;4986526;28;20121;-80
2023/05/01 08:34:31;;;;;;;3.10;2.78;;;;;;;14.93;41.75;93975.50;4988227;28;20024;-81
2023/05/01 08:36:58;;;;;;;5.78;4.43;;;;;;;14.62;42.88;93991.34;4980060;28;20125;-81
2023/05/01 08:39:23;;;;;;;4.22;3.40;;;;;;;14.91;41.50;93997.25;4981066;28;20229;-79
2023/05/01 08:41:49;;;;;;;3.78;2.90;;;;;;;14.99;42.03;93990.22;4981668;28;20038;-80
2023/05/01 08:44:16;;;;;;;4.25;2.85;;;;;;;15.16;42.75;93987.28;4981567;28;20058;-81
2023/05/01 08:46:52;;;;;;;6.88;4.63;;;;;;;15.18;43.65;93987.75;4980464;28;20022;-78
2023/05/01 08:49:21;;;;;;;5.80;4.60;;;;;;;15.03;44.04;93969.69;4981718;28;20062;-78
2023/05/01 08:51:49;;;;;;;5.47;4.30;;;;;;;15.14;42.18;93975.38;4982528;28;20046;-78
2023/05/01 08:54:16;;;;;;;6.60;3.90;;;;;;;14.93;43.50;93980.84;4987489;28;20034;-81
2023/05/01 08:56:46;;;;;;;6.82;3.80;;;;;;;15.14;42.19;93978.84;4980660;28;20041;-80
2023/05/01 08:59:13;;;;;;;7.20;4.65;;;;;;;15.40;45.41;93978.47;4984014;28;20034;-81
2023/05/01 09:01:40;;;;;;;5.95;4.60;;;;;;;15.60;42.45;93982.09;4976586;28;20034;-82
2023/05/01 09:04:07;;;;;;;4.63;3.78;;;;;;;15.27;42.38;93975.00;4974545;28;20045;-79
2023/05/01 09:06:33;;;;;;;6.55;3.72;;;;;;;15.28;40.88;93971.22;4973169;28;20072;-81
2023/05/01 09:08:58;;;;;;;5.75;2.83;;;;;;;15.26;40.89;93973.44;4971551;28;21308;-81
2023/05/01 09:11:25;;;;;;;5.20;3.78;;;;;;;15.70;41.19;93976.25;4990339;28;20076;-81
2023/05/01 09:13:51;;;;;;;5.18;3.55;;;;;;;15.76;39.93;93954.22;4972986;28;20049;-82
2023/05/01 09:16:17;;;;;;;5.82;4.35;;;;;;;15.80;42.54;93962.34;4974906;28;20027;-82
2023/05/01 09:18:43;;;;;;;3.80;3.45;;;;;;;15.82;42.27;93968.16;4980510;28;20633;-81
2023/05/01 09:21:09;;;;;;;7.22;3.97;;;;;;;15.27;41.01;93963.50;4978679;28;20455;-81
2023/05/01 09:23:36;;;;;;;5.63;3.58;;;;;;;15.36;42.36;93978.34;4982331;28;20034;-78
2023/05/01 09:26:05;;;;;;;6.47;4.20;;;;;;;15.99;41.95;93972.47;4979524;28;20026;-80
2023/05/01 09:28:40;;;;;;;6.47;3.83;;;;;;;15.77;42.11;93965.72;4995222;28;20281;-78
2023/05/01 09:31:27;;;;;;;5.40;3.85;;;;;;;15.51;41.81;93984.91;4984096;28;20044;-79
2023/05/01 09:33:59;;;;;;;5.30;3.47;;;;;;;15.44;41.63;93980.16;4979025;28;20034;-78
2023/05/01 09:36:27;;;;;;;5.13;3.72;;;;;;;15.22;42.02;93985.97;4980232;28;20034;-82
2023/05/01 09:38:53;;;;;;;5.05;3.38;;;;;;;15.30;41.67;93966.28;4977474;28;20504;-83
2023/05/01 09:41:19;;;;;;;3.42;2.70;;;;;;;15.44;42.04;93968.66;4978210;28;20068;-82
2023/05/01 09:43:54;;;;;;;3.67;2.80;;;;;;;15.48;41.76;93974.09;4979451;28;20614;-80
2023/05/01 09:46:22;;;;;;;3.88;2.65;;;;;;;15.62;40.21;93977.19;4969662;28;20022;-81
2023/05/01 09:48:56;;;;;;;5.80;3.22;;;;;;;15.07;41.36;93991.22;4975595;28;20043;-82
2023/05/01 09:51:31;;;;;;;8.85;3.72;;;;;;;14.94;42.60;93956.44;4976171;28;20048;-79
2023/05/01 09:53:58;;;;;;;3.67;2.58;;;;;;;15.13;41.13;93973.81;4979861;28;20440;-81
2023/05/01 09:56:32;;;;;;;3.97;2.92;;;;;;;15.41;40.07;93975.41;4979333;28;20045;-81
2023/05/01 09:59:15;;;;;;;3.05;2.50;;;;;;;15.80;40.13;93959.66;4982517;28;20057;-82
2023/05/01 10:01:43;;;;;;;3.47;3.17;;;;;;;16.06;41.45;93957.31;4994286;28;20043;-82
2023/05/01 10:04:09;;;;;;;5.65;3.90;;;;;;;15.79;42.56;93948.16;4981448;28;20055;-81
2023/05/01 10:06:35;;;;;;;4.38;3.28;;;;;;;16.09;39.55;93967.34;4982822;28;20026;-79
2023/05/01 10:09:01;;;;;;;4.25;3.53;;;;;;;15.90;41.14;93967.22;4983294;28;20034;-82
2023/05/01 10:11:27;;;;;;;5.18;3.72;;;;;;;15.82;41.95;93947.50;4979227;28;20049;-79
2023/05/01 10:14:09;;;;;;;4.70;3.70;;;;;;;15.66;42.46;93965.44;4982560;28;20066;-81
2023/05/01 10:16:36;;;;;;;5.80;3.67;;;;;;;15.46;43.95;93964.50;4981660;28;20038;-77
2023/05/01 10:19:03;;;;;;;6.78;4.70;;;;;;;15.39;44.76;93963.50;4978719;28;20038;-83
2023/05/01 10:21:32;;;;;;;5.55;4.30;;;;;;;15.14;44.45;93921.78;4977441;28;20034;-79
2023/05/01 10:24:00;;;;;;;5.78;4.40;;;;;;;15.30;43.75;93928.75;4975720;28;20046;-81
2023/05/01 10:26:26;;;;;;;4.10;3.78;;;;;;;15.34;43.54;93961.03;4980625;28;20584;-79
2023/05/01 10:28:52;;;;;;;5.13;4.10;;;;;;;15.81;43.36;93951.28;4981161;28;20144;-81
2023/05/01 10:31:17;;;;;;;7.55;3.78;;;;;;;15.45;43.01;93959.47;4982268;28;20056;-81
2023/05/01 10:33:44;;;;;;;7.00;3.42;;;;;;;15.31;42.40;93957.13;4994223;28;20093;-82
2023/05/01 10:36:24;;;;;;;4.80;3.42;;;;;;;15.09;42.58;93954.97;4993303;28;20031;-82
2023/05/01 10:38:49;;;;;;;4.72;3.65;;;;;;;15.32;42.24;93961.38;4992003;28;20049;-82
2023/05/01 10:41:15;;;;;;;4.53;3.70;;;;;;;15.33;42.10;93954.13;4988333;28;20953;-81
2023/05/01 10:43:41;;;;;;;6.57;4.22;;;;;;;15.45;42.18;93973.66;4990970;28;20129;-82
2023/05/01 10:46:07;;;;;;;3.42;3.10;;;;;;;15.55;42.10;93971.63;4986434;28;20034;-81
2023/05/01 10:48:38;;;;;;;4.72;3.00;;;;;;;15.58;41.87;93968.25;4989182;28;20034;-80
2023/05/01 10:51:14;;;;;;;4.75;2.78;;;;;;;15.62;40.84;93963.78;4983876;28;20018;-81
2023/05/01 10:53:41;;;;;;;4.60;2.47;;;;;;;16.01;40.27;93965.63;4990678;28;20074;-79
2023/05/01 10:56:25;;;;;;;7.97;2.88;;;;;;;16.50;40.17;93960.00;4987051;28;20042;-81
2023/05/01 10:59:05;;;;;;;3.47;2.92;;;;;;;16.76;39.90;93954.88;4986977;28;20493;-82
2023/05/01 11:01:32;;;;;;;7.78;3.45;;;;;;;16.59;39.26;93931.06;5002609;28;20045;-81
2023/05/01 11:04:26;;;;;;;5.55;2.20;;;;;;;16.41;39.93;93956.69;4986994;28;20780;-81
2023/05/01 11:06:57;;;;;;;4.68;3.15;;;;;;;16.58;39.54;93957.13;4987277;28;20038;-81
2023/05/01 11:09:45;;;;;;;3.63;3.00;;;;;;;16.10;39.67;93952.81;4988217;28;20080;-81
2023/05/01 11:12:12;;;;;;;3.33;2.40;;;;;;;16.41;38.13;93943.28;4988861;28;20046;-81
2023/05/01 11:14:53;;;;;;;52.05;8.82;;;;;;;16.81;38.35;93969.94;4993818;28;20098;-83
2023/05/01 11:17:40;;;;;;;4.68;4.18;;;;;;;16.83;39.08;93963.09;4987361;28;20651;-80
2023/05/01 11:20:10;;;;;;;2.92;2.72;;;;;;;16.36;39.50;93922.84;4988792;28;20031;-82
2023/05/01 11:22:37;;;;;;;4.05;2.58;;;;;;;16.20;41.20;93957.69;4987407;28;20038;-82
2023/05/01 11:25:04;;;;;;;6.68;3.30;;;;;;;16.19;41.69;93972.22;4987121;28;20039;-82
2023/05/01 11:27:30;;;;;;;3.42;2.60;;;;;;;16.46;41.00;93972.56;4987664;28;20018;-80
2023/05/01 11:29:58;;;;;;;3.92;2.78;;;;;;;16.77;40.79;93963.72;4989645;28;20304;-81